createdAt,value
2023-05-08T00:00:39.335Z,100.00
2023-05-08T00:01:41.520Z,100.00
2023-05-08T00:02:43.744Z,100.00
2023-05-08T00:03:46.070Z,100.00
2023-05-08T00:04:48.384Z,100.00
2023-05-08T00:05:50.788Z,100.00
2023-05-08T00:06:53.088Z,100.00
2023-05-08T00:08:01.201Z,100.00
2023-05-08T00:09:03.480Z,100.00
2023-05-08T00:10:06.831Z,100.00
2023-05-08T00:11:09.025Z,100.00
2023-05-08T00:12:11.150Z,100.00
2023-05-08T00:13:13.320Z,100.00
2023-05-08T00:14:15.523Z,100.00
2023-05-08T00:15:17.674Z,100.00
2023-05-08T00:16:19.883Z,100.00
2023-05-08T00:17:22.540Z,100.00
2023-05-08T00:18:24.938Z,100.00
2023-05-08T00:19:27.080Z,100.00
2023-05-08T00:20:29.292Z,100.00
2023-05-08T00:21:31.418Z,100.00
2023-05-08T00:22:33.569Z,100.00
2023-05-08T00:23:35.726Z,100.00
2023-05-08T00:24:37.890Z,100.00
2023-05-08T00:25:40.022Z,100.00
2023-05-08T00:26:44.294Z,100.00
2023-05-08T00:27:46.807Z,100.00
2023-05-08T00:28:48.916Z,100.00
2023-05-08T00:29:51.043Z,100.00
2023-05-08T00:30:53.818Z,100.00
2023-05-08T00:31:56.343Z,100.00
2023-05-08T00:32:58.644Z,100.00
2023-05-08T00:34:01.174Z,100.00
2023-05-08T00:35:03.495Z,100.00
2023-05-08T00:36:06.379Z,100.00
2023-05-08T00:37:08.847Z,100.00
2023-05-08T00:38:11.419Z,100.00
2023-05-08T00:39:13.664Z,100.00
2023-05-08T00:40:16.163Z,100.00
2023-05-08T00:41:18.385Z,100.00
2023-05-08T00:42:20.888Z,100.00
2023-05-08T00:43:28.133Z,100.00
2023-05-08T00:44:30.275Z,100.00
2023-05-08T00:45:36.603Z,100.00
2023-05-08T00:46:39.643Z,100.00
2023-05-08T00:47:42.462Z,100.00
2023-05-08T00:48:45.989Z,100.00
2023-05-08T00:49:48.789Z,100.00
2023-05-08T00:50:52.812Z,100.00
2023-05-08T00:51:56.016Z,100.00
2023-05-08T00:53:00.408Z,100.00
2023-05-08T00:54:03.549Z,100.00
2023-05-08T00:55:06.969Z,100.00
2023-05-08T00:56:15.279Z,100.00
2023-05-08T00:57:18.689Z,100.00
2023-05-08T00:58:21.791Z,100.00
2023-05-08T00:59:25.041Z,100.00
2023-05-08T01:00:27.472Z,100.00
2023-05-08T01:01:30.192Z,100.00
2023-05-08T01:02:32.949Z,100.00
2023-05-08T01:03:36.536Z,100.00
2023-05-08T01:04:40.232Z,100.00
2023-05-08T01:05:43.767Z,100.00
2023-05-08T01:06:45.937Z,100.00
2023-05-08T01:07:48.189Z,100.00
2023-05-08T01:08:51.158Z,100.00
2023-05-08T01:09:53.331Z,100.00
2023-05-08T01:11:10.808Z,100.00
2023-05-08T01:12:36.281Z,100.00
2023-05-08T01:13:57.015Z,100.00
2023-05-08T01:15:08.517Z,100.00
2023-05-08T01:16:37.249Z,100.00
2023-05-08T01:18:05.291Z,100.00
2023-05-08T01:19:31.279Z,100.00
2023-05-08T01:20:52.034Z,100.00
2023-05-08T01:22:04.273Z,100.00
2023-05-08T01:23:37.295Z,100.00
2023-05-08T01:25:07.411Z,100.00
2023-05-08T01:26:37.735Z,100.00
2023-05-08T01:27:58.408Z,100.00
2023-05-08T01:29:19.552Z,100.00
2023-05-08T01:30:27.630Z,100.00
2023-05-08T01:31:44.709Z,100.00
2023-05-08T01:32:56.156Z,100.00
2023-05-08T01:34:26.613Z,100.00
2023-05-08T01:35:45.327Z,100.00
2023-05-08T01:36:59.245Z,100.00
2023-05-08T01:38:10.754Z,100.00
2023-05-08T01:39:21.844Z,100.00
2023-05-08T01:41:01.802Z,100.00
2023-05-08T01:42:26.501Z,100.00
2023-05-08T01:44:04.149Z,100.00
2023-05-08T01:45:31.016Z,100.00
2023-05-08T01:46:34.412Z,100.00
2023-05-08T01:47:38.580Z,100.00
2023-05-08T01:48:54.830Z,100.00
2023-05-08T01:50:21.952Z,100.00
2023-05-08T01:51:27.876Z,100.00
2023-05-08T01:52:41.707Z,100.00
2023-05-08T01:53:49.658Z,100.00
2023-05-08T01:54:58.779Z,100.00
2023-05-08T01:56:08.115Z,100.00
2023-05-08T01:57:12.136Z,100.00
2023-05-08T01:58:14.973Z,100.00
2023-05-08T01:59:20.838Z,100.00
2023-05-08T02:00:25.486Z,100.00
2023-05-08T02:01:29.435Z,100.00
2023-05-08T02:02:34.396Z,100.00
2023-05-08T02:03:38.520Z,100.00
2023-05-08T02:04:44.303Z,100.00
2023-05-08T02:05:48.631Z,100.00
2023-05-08T02:06:52.185Z,100.00
2023-05-08T02:07:56.614Z,100.00
2023-05-08T02:09:01.770Z,100.00
2023-05-08T02:10:06.338Z,100.00
2023-05-08T02:11:11.599Z,100.00
2023-05-08T02:12:16.461Z,100.00
2023-05-08T02:13:22.018Z,100.00
2023-05-08T02:14:26.234Z,100.00
2023-05-08T02:15:29.467Z,100.00
2023-05-08T02:16:31.824Z,100.00
2023-05-08T02:17:37.897Z,100.00
2023-05-08T02:18:44.661Z,100.00
2023-05-08T02:19:48.129Z,100.00
2023-05-08T02:20:52.103Z,100.00
2023-05-08T02:21:55.409Z,100.00
2023-05-08T02:22:57.691Z,100.00
2023-05-08T02:24:01.864Z,100.00
2023-05-08T02:25:04.567Z,100.00
2023-05-08T02:26:09.494Z,100.00
2023-05-08T02:27:12.582Z,100.00
2023-05-08T02:28:18.942Z,100.00
2023-05-08T02:29:23.201Z,100.00
2023-05-08T02:30:26.370Z,100.00
2023-05-08T02:31:30.080Z,100.00
2023-05-08T02:32:33.180Z,100.00
2023-05-08T02:33:37.025Z,100.00
2023-05-08T02:34:45.208Z,100.00
2023-05-08T02:35:55.499Z,100.00
2023-05-08T02:36:59.731Z,100.00
2023-05-08T02:38:02.859Z,100.00
2023-05-08T02:39:08.288Z,100.00
2023-05-08T02:40:13.088Z,100.00
2023-05-08T02:41:18.325Z,100.00
2023-05-08T02:42:21.189Z,100.00
2023-05-08T02:43:24.064Z,100.00
2023-05-08T02:44:27.236Z,100.00
2023-05-08T02:45:48.007Z,100.00
2023-05-08T02:46:57.930Z,100.00
2023-05-08T02:48:09.237Z,100.00
2023-05-08T02:49:24.223Z,100.00
2023-05-08T02:50:38.366Z,100.00
2023-05-08T02:52:05.747Z,100.00
2023-05-08T02:53:12.588Z,100.00
2023-05-08T02:54:39.214Z,100.00
2023-05-08T02:55:52.973Z,100.00
2023-05-08T02:57:14.450Z,100.00
2023-05-08T02:58:22.549Z,100.00
2023-05-08T02:59:39.509Z,100.00
2023-05-08T03:00:47.522Z,100.00
2023-05-08T03:02:14.087Z,100.00
2023-05-08T03:03:39.969Z,100.00
2023-05-08T03:04:51.475Z,100.00
2023-05-08T03:05:59.880Z,100.00
2023-05-08T03:07:04.308Z,100.00
2023-05-08T03:08:14.471Z,100.00
2023-05-08T03:09:20.676Z,100.00
2023-05-08T03:10:29.539Z,100.00
2023-05-08T03:11:39.128Z,100.00
2023-05-08T03:12:46.068Z,100.00
2023-05-08T03:13:49.485Z,100.00
2023-05-08T03:16:02.925Z,100.00
2023-05-08T03:17:08.731Z,100.00
2023-05-08T03:18:20.285Z,100.00
2023-05-08T03:19:30.038Z,100.00
2023-05-08T03:20:37.334Z,100.00
2023-05-08T03:21:43.091Z,100.00
2023-05-08T03:22:48.296Z,100.00
2023-05-08T03:23:53.181Z,100.00
2023-05-08T03:24:56.595Z,100.00
2023-05-08T03:26:01.010Z,100.00
2023-05-08T03:27:04.619Z,100.00
2023-05-08T03:28:07.625Z,100.00
2023-05-08T03:29:13.048Z,100.00
2023-05-08T03:30:16.947Z,100.00
2023-05-08T03:31:25.122Z,100.00
2023-05-08T03:32:28.865Z,100.00
2023-05-08T03:33:32.695Z,100.00
2023-05-08T03:34:36.063Z,100.00
2023-05-08T03:35:39.438Z,100.00
2023-05-08T03:36:43.272Z,100.00
2023-05-08T03:37:45.785Z,100.00
2023-05-08T03:38:48.923Z,100.00
2023-05-08T03:39:52.005Z,100.00
2023-05-08T03:40:54.337Z,100.00
2023-05-08T03:41:56.911Z,100.00
2023-05-08T03:43:01.055Z,100.00
2023-05-08T03:44:03.667Z,100.00
2023-05-08T03:45:07.041Z,100.00
2023-05-08T03:46:10.387Z,100.00
2023-05-08T03:47:12.806Z,100.00
2023-05-08T03:48:16.442Z,100.00
2023-05-08T03:49:20.024Z,100.00
2023-05-08T03:50:22.763Z,100.00
2023-05-08T03:51:25.407Z,100.00
2023-05-08T03:52:27.604Z,100.00
2023-05-08T03:53:31.597Z,100.00
2023-05-08T03:54:33.829Z,100.00
2023-05-08T03:55:36.601Z,100.00
2023-05-08T03:56:40.973Z,100.00
2023-05-08T03:57:55.452Z,100.00
2023-05-08T03:59:07.377Z,100.00
2023-05-08T04:00:22.109Z,100.00
2023-05-08T04:01:44.238Z,100.00
2023-05-08T04:03:02.763Z,100.00
2023-05-08T04:04:16.367Z,100.00
2023-05-08T04:06:35.701Z,100.00
2023-05-08T04:07:53.588Z,100.00
2023-05-08T04:09:08.082Z,100.00
2023-05-08T04:10:21.697Z,100.00
2023-05-08T04:11:35.667Z,100.00
2023-05-08T04:12:40.894Z,100.00
2023-05-08T04:13:50.599Z,100.00
2023-05-08T04:15:16.010Z,100.00
2023-05-08T04:16:25.401Z,100.00
2023-05-08T04:17:45.028Z,100.00
2023-05-08T04:19:47.230Z,100.00
2023-05-08T04:20:53.713Z,100.00
2023-05-08T04:21:59.153Z,100.00
2023-05-08T04:23:03.822Z,100.00
2023-05-08T04:24:10.111Z,100.00
2023-05-08T04:25:15.306Z,100.00
2023-05-08T04:26:19.007Z,100.00
2023-05-08T04:27:24.272Z,100.00
2023-05-08T04:28:26.702Z,100.00
2023-05-08T04:29:30.072Z,100.00
2023-05-08T04:30:33.229Z,100.00
2023-05-08T04:31:37.282Z,100.00
2023-05-08T04:32:41.835Z,100.00
2023-05-08T04:33:45.893Z,100.00
2023-05-08T04:34:48.408Z,100.00
2023-05-08T04:35:51.406Z,100.00
2023-05-08T04:36:54.648Z,100.00
2023-05-08T04:37:59.341Z,100.00
2023-05-08T04:39:01.515Z,100.00
2023-05-08T04:40:07.510Z,100.00
2023-05-08T04:41:09.995Z,100.00
2023-05-08T04:42:12.408Z,100.00
2023-05-08T04:43:14.845Z,100.00
2023-05-08T04:44:17.352Z,100.00
2023-05-08T04:46:14.145Z,100.00
2023-05-08T04:47:16.484Z,100.00
2023-05-08T04:48:19.013Z,100.00
2023-05-08T04:49:21.241Z,100.00
2023-05-08T04:50:23.549Z,100.00
2023-05-08T04:51:26.293Z,100.00
2023-05-08T04:52:28.475Z,100.00
2023-05-08T04:53:30.726Z,100.00
2023-05-08T04:54:32.876Z,100.00
2023-05-08T04:55:35.047Z,100.00
2023-05-08T04:56:37.643Z,100.00
2023-05-08T04:57:40.030Z,100.00
2023-05-08T04:58:42.963Z,100.00
2023-05-08T04:59:45.799Z,100.00
2023-05-08T05:00:47.984Z,100.00
2023-05-08T05:01:50.533Z,100.00
2023-05-08T05:02:52.910Z,100.00
2023-05-08T05:03:56.182Z,100.00
2023-05-08T05:04:58.906Z,100.00
2023-05-08T05:06:01.881Z,100.00
2023-05-08T05:07:04.564Z,100.00
2023-05-08T05:08:07.248Z,100.00
2023-05-08T05:09:10.213Z,100.00
2023-05-08T05:10:12.474Z,100.00
2023-05-08T05:11:14.654Z,100.00
2023-05-08T05:12:16.973Z,100.00
2023-05-08T05:13:19.967Z,100.00
2023-05-08T05:14:22.259Z,100.00
2023-05-08T05:15:24.524Z,100.00
2023-05-08T05:16:27.410Z,100.00
2023-05-08T05:17:31.347Z,100.00
2023-05-08T05:18:34.073Z,100.00
2023-05-08T05:19:36.279Z,100.00
2023-05-08T05:20:38.833Z,100.00
2023-05-08T05:21:41.104Z,100.00
2023-05-08T05:22:43.504Z,100.00
2023-05-08T05:23:45.985Z,100.00
2023-05-08T05:24:48.129Z,100.00
2023-05-08T05:25:50.338Z,100.00
2023-05-08T05:26:52.557Z,100.00
2023-05-08T05:27:54.773Z,100.00
2023-05-08T05:28:57.120Z,100.00
2023-05-08T05:29:59.293Z,100.00
2023-05-08T05:31:02.242Z,100.00
2023-05-08T05:32:07.108Z,100.00
2023-05-08T05:33:09.476Z,100.00
2023-05-08T05:34:12.578Z,100.00
2023-05-08T05:35:15.446Z,100.00
2023-05-08T05:36:17.910Z,100.00
2023-05-08T05:37:20.108Z,100.00
2023-05-08T05:38:22.558Z,100.00
2023-05-08T05:39:24.785Z,100.00
2023-05-08T05:40:26.964Z,100.00
2023-05-08T05:41:29.196Z,100.00
2023-05-08T05:42:31.575Z,100.00
2023-05-08T05:43:34.190Z,100.00
2023-05-08T05:44:37.395Z,100.00
2023-05-08T05:45:40.134Z,100.00
2023-05-08T05:46:44.237Z,100.00
2023-05-08T05:47:50.049Z,100.00
2023-05-08T05:48:54.032Z,100.00
2023-05-08T05:49:57.761Z,100.00
2023-05-08T05:51:00.949Z,100.00
2023-05-08T05:52:03.334Z,100.00
2023-05-08T05:53:05.636Z,100.00
2023-05-08T05:54:07.820Z,100.00
2023-05-08T05:55:10.500Z,100.00
2023-05-08T05:56:12.712Z,100.00
2023-05-08T05:57:14.966Z,100.00
2023-05-08T05:58:17.812Z,100.00
2023-05-08T05:59:20.005Z,100.00
2023-05-08T06:00:22.409Z,100.00
2023-05-08T06:01:29.197Z,100.00
2023-05-08T06:02:33.939Z,100.00
2023-05-08T06:03:36.360Z,100.00
2023-05-08T06:04:39.040Z,100.00
2023-05-08T06:05:42.624Z,100.00
2023-05-08T06:06:44.800Z,100.00
2023-05-08T06:07:47.022Z,100.00
2023-05-08T06:08:49.183Z,100.00
2023-05-08T06:09:53.371Z,100.00
2023-05-08T06:10:55.564Z,100.00
2023-05-08T06:11:58.092Z,100.00
2023-05-08T06:13:00.592Z,100.00
2023-05-08T06:14:03.232Z,100.00
2023-05-08T06:15:06.223Z,100.00
2023-05-08T06:16:08.640Z,100.00
2023-05-08T06:17:11.043Z,100.00
2023-05-08T06:18:13.472Z,100.00
2023-05-08T06:19:15.824Z,100.00
2023-05-08T06:20:18.372Z,100.00
2023-05-08T06:21:20.526Z,100.00
2023-05-08T06:22:24.448Z,100.00
2023-05-08T06:23:27.088Z,100.00
2023-05-08T06:24:29.567Z,100.00
2023-05-08T06:25:31.882Z,100.00
2023-05-08T06:26:34.442Z,100.00
2023-05-08T06:27:37.074Z,100.00
2023-05-08T06:28:39.260Z,100.00
2023-05-08T06:29:41.411Z,100.00
2023-05-08T06:30:43.556Z,100.00
2023-05-08T06:31:45.831Z,100.00
2023-05-08T06:32:48.006Z,100.00
2023-05-08T06:33:50.147Z,100.00
2023-05-08T06:34:52.351Z,100.00
2023-05-08T06:35:54.495Z,100.00
2023-05-08T06:36:56.635Z,100.00
2023-05-08T06:37:58.746Z,100.00
2023-05-08T06:39:00.913Z,100.00
2023-05-08T06:40:12.039Z,100.00
2023-05-08T06:41:15.526Z,100.00
2023-05-08T06:42:17.766Z,100.00
2023-05-08T06:43:21.776Z,100.00
2023-05-08T06:44:23.944Z,100.00
2023-05-08T06:45:26.180Z,100.00
2023-05-08T06:46:29.909Z,100.00
2023-05-08T06:47:32.211Z,100.00
2023-05-08T06:48:34.563Z,100.00
2023-05-08T06:49:37.079Z,100.00
2023-05-08T06:50:39.627Z,100.00
2023-05-08T06:51:41.868Z,100.00
2023-05-08T06:52:44.086Z,100.00
2023-05-08T06:53:46.245Z,100.00
2023-05-08T06:54:48.418Z,100.00
2023-05-08T06:55:51.568Z,100.00
2023-05-08T06:56:56.715Z,100.00
2023-05-08T06:57:58.901Z,100.00
2023-05-08T06:59:08.261Z,100.00
2023-05-08T07:00:11.982Z,100.00
2023-05-08T07:01:15.074Z,100.00
2023-05-08T07:02:17.285Z,100.00
2023-05-08T07:03:19.434Z,100.00
2023-05-08T07:04:21.722Z,100.00
2023-05-08T07:05:24.041Z,100.00
2023-05-08T07:06:27.645Z,100.00
2023-05-08T07:07:29.798Z,100.00
2023-05-08T07:08:32.400Z,100.00
2023-05-08T07:09:34.645Z,100.00
2023-05-08T07:10:37.142Z,100.00
2023-05-08T07:11:39.320Z,100.00
2023-05-08T07:12:41.567Z,100.00
2023-05-08T07:13:46.042Z,100.00
2023-05-08T07:14:48.205Z,100.00
2023-05-08T07:15:50.476Z,100.00
2023-05-08T07:16:52.677Z,100.00
2023-05-08T07:17:54.917Z,100.00
2023-05-08T07:18:57.331Z,100.00
2023-05-08T07:19:59.460Z,100.00
2023-05-08T07:21:01.628Z,100.00
2023-05-08T07:22:04.867Z,100.00
2023-05-08T07:23:07.451Z,100.00
2023-05-08T07:24:09.715Z,100.00
2023-05-08T07:25:12.779Z,100.00
2023-05-08T07:26:15.117Z,100.00
2023-05-08T07:27:17.366Z,100.00
2023-05-08T07:28:19.544Z,100.00
2023-05-08T07:29:21.713Z,100.00
2023-05-08T07:30:24.000Z,100.00
2023-05-08T07:31:26.478Z,100.00
2023-05-08T07:32:30.514Z,100.00
2023-05-08T07:33:33.955Z,100.00
2023-05-08T07:34:36.207Z,99.08
2023-05-08T07:35:41.569Z,96.43
2023-05-08T07:36:43.890Z,94.02
2023-05-08T07:37:46.023Z,91.47
2023-05-08T07:38:48.159Z,96.52
2023-05-08T07:39:50.415Z,100.00
2023-05-08T07:40:57.091Z,100.00
2023-05-08T07:41:59.380Z,100.00
2023-05-08T07:43:01.567Z,100.00
2023-05-08T07:44:03.777Z,100.00
2023-05-08T07:45:07.006Z,100.00
2023-05-08T07:46:09.282Z,100.00
2023-05-08T07:47:11.553Z,100.00
2023-05-08T07:48:13.879Z,100.00
2023-05-08T07:49:16.060Z,100.00
2023-05-08T07:50:18.958Z,100.00
2023-05-08T07:51:21.096Z,100.00
2023-05-08T07:52:23.482Z,100.00
2023-05-08T07:53:25.616Z,100.00
2023-05-08T07:54:27.748Z,99.78
2023-05-08T07:55:29.903Z,100.00
2023-05-08T07:56:32.058Z,97.57
2023-05-08T07:57:41.807Z,98.71
2023-05-08T07:58:45.946Z,99.70
2023-05-08T07:59:48.090Z,100.00
2023-05-08T08:00:50.206Z,100.00
2023-05-08T08:01:52.574Z,100.00
2023-05-08T08:02:54.950Z,100.00
2023-05-08T08:03:57.448Z,100.00
2023-05-08T08:04:59.679Z,100.00
2023-05-08T08:06:01.849Z,100.00
2023-05-08T08:07:04.017Z,100.00
2023-05-08T08:08:06.211Z,100.00
2023-05-08T08:09:08.559Z,100.00
2023-05-08T08:10:10.798Z,100.00
2023-05-08T08:11:12.990Z,100.00
2023-05-08T08:12:15.639Z,100.00
2023-05-08T08:13:17.928Z,100.00
2023-05-08T08:14:20.140Z,100.00
2023-05-08T08:15:22.332Z,100.00
2023-05-08T08:16:24.551Z,100.00
2023-05-08T08:17:28.714Z,100.00
2023-05-08T08:18:35.678Z,100.00
2023-05-08T08:19:37.836Z,100.00
2023-05-08T08:20:40.290Z,100.00
2023-05-08T08:21:43.819Z,100.00
2023-05-08T08:22:46.049Z,100.00
2023-05-08T08:23:48.175Z,100.00
2023-05-08T08:24:51.900Z,100.00
2023-05-08T08:25:56.351Z,100.00
2023-05-08T08:26:58.600Z,100.00
2023-05-08T08:28:01.002Z,100.00
2023-05-08T08:29:03.184Z,100.00
2023-05-08T08:30:16.261Z,100.00
2023-05-08T08:31:20.116Z,100.00
2023-05-08T08:32:22.430Z,100.00
2023-05-08T08:33:24.640Z,100.00
2023-05-08T08:34:26.809Z,97.99
2023-05-08T08:35:30.170Z,95.13
2023-05-08T08:36:32.648Z,91.24
2023-05-08T08:37:34.873Z,88.21
2023-05-08T08:38:37.547Z,82.27
2023-05-08T08:39:39.760Z,84.42
2023-05-08T08:40:42.403Z,78.36
2023-05-08T08:41:44.628Z,73.16
2023-05-08T08:42:47.282Z,68.54
2023-05-08T08:43:49.463Z,65.41
2023-05-08T08:44:51.719Z,64.15
2023-05-08T08:45:53.911Z,61.10
2023-05-08T08:46:58.598Z,62.27
2023-05-08T08:48:02.340Z,62.44
2023-05-08T08:49:05.420Z,64.72
2023-05-08T08:50:12.049Z,64.99
2023-05-08T08:51:28.426Z,65.94
2023-05-08T08:52:48.785Z,68.64
2023-05-08T08:54:02.376Z,71.81
2023-05-08T08:55:08.112Z,74.89
2023-05-08T08:56:11.679Z,77.24
2023-05-08T08:57:15.054Z,80.62
2023-05-08T08:58:39.013Z,79.41
2023-05-08T08:59:43.217Z,83.22
2023-05-08T09:00:47.452Z,85.18
2023-05-08T09:01:56.871Z,80.27
2023-05-08T09:02:59.630Z,82.67
2023-05-08T09:04:02.778Z,87.81
2023-05-08T09:05:06.116Z,93.10
2023-05-08T09:06:08.790Z,95.97
2023-05-08T09:07:12.034Z,96.45
2023-05-08T09:08:14.275Z,92.22
2023-05-08T09:09:16.498Z,90.70
2023-05-08T09:10:18.752Z,82.65
2023-05-08T09:11:21.236Z,78.71
2023-05-08T09:12:23.445Z,76.57
2023-05-08T09:13:26.323Z,73.38
2023-05-08T09:14:28.762Z,70.79
2023-05-08T09:15:34.984Z,68.60
2023-05-08T09:16:37.762Z,68.82
2023-05-08T09:17:39.995Z,72.62
2023-05-08T09:18:42.203Z,73.14
2023-05-08T09:19:44.958Z,71.13
2023-05-08T09:21:46.314Z,73.19
2023-05-08T09:22:49.011Z,68.45
2023-05-08T09:23:59.586Z,69.27
2023-05-08T09:25:03.283Z,77.41
2023-05-08T09:26:05.634Z,74.09
2023-05-08T09:27:21.310Z,72.11
2023-05-08T09:28:25.373Z,72.18
2023-05-08T09:29:27.488Z,72.65
2023-05-08T09:30:29.655Z,71.88
2023-05-08T09:31:39.908Z,75.25
2023-05-08T09:32:44.332Z,71.16
2023-05-08T09:33:46.523Z,68.94
2023-05-08T09:34:52.777Z,73.19
2023-05-08T09:35:58.183Z,78.03
2023-05-08T09:37:06.266Z,75.67
2023-05-08T09:38:08.393Z,71.31
2023-05-08T09:39:12.639Z,68.22
2023-05-08T09:40:22.483Z,69.00
2023-05-08T09:41:24.797Z,72.25
2023-05-08T09:42:38.053Z,72.57
2023-05-08T09:43:40.384Z,72.69
2023-05-08T09:44:48.205Z,71.51
2023-05-08T09:45:50.418Z,74.36
2023-05-08T09:46:53.900Z,71.03
2023-05-08T09:47:56.186Z,72.97
2023-05-08T09:49:00.721Z,68.73
2023-05-08T09:50:06.992Z,69.10
2023-05-08T09:52:08.550Z,67.43
2023-05-08T09:53:10.924Z,66.38
2023-05-08T09:54:18.267Z,65.37
2023-05-08T09:55:20.503Z,64.77
2023-05-08T09:56:39.391Z,63.13
2023-05-08T09:57:56.960Z,63.92
2023-05-08T09:58:59.225Z,67.40
2023-05-08T10:00:09.896Z,68.09
2023-05-08T10:01:34.938Z,66.58
2023-05-08T10:02:38.426Z,65.23
2023-05-08T10:03:48.251Z,66.23
2023-05-08T10:04:50.631Z,65.44
2023-05-08T10:05:52.867Z,67.00
2023-05-08T10:06:58.907Z,70.25
2023-05-08T10:08:22.372Z,70.20
2023-05-08T10:09:26.094Z,69.33
2023-05-08T10:10:30.987Z,67.21
2023-05-08T10:11:33.247Z,64.65
2023-05-08T10:12:37.859Z,62.78
2023-05-08T10:13:40.123Z,65.24
2023-05-08T10:14:43.655Z,64.27
2023-05-08T10:15:52.880Z,65.14
2023-05-08T10:16:55.307Z,66.47
2023-05-08T10:18:08.782Z,61.45
2023-05-08T10:19:14.391Z,61.45
2023-05-08T10:20:21.340Z,60.48
2023-05-08T10:21:25.952Z,63.76
2023-05-08T10:22:29.549Z,62.06
2023-05-08T10:23:34.154Z,63.08
2023-05-08T10:24:41.353Z,66.47
2023-05-08T10:25:45.904Z,65.53
2023-05-08T10:27:09.719Z,62.99
2023-05-08T10:28:51.134Z,64.12
2023-05-08T10:30:01.544Z,63.08
2023-05-08T10:31:05.618Z,60.84
2023-05-08T10:32:10.525Z,59.41
2023-05-08T10:33:15.344Z,58.83
2023-05-08T10:34:22.350Z,57.15
2023-05-08T10:35:25.449Z,56.38
2023-05-08T10:36:30.918Z,54.54
2023-05-08T10:37:36.075Z,54.98
2023-05-08T10:38:39.570Z,56.18
2023-05-08T10:39:44.409Z,53.60
2023-05-08T10:40:48.122Z,54.32
2023-05-08T10:41:50.481Z,54.66
2023-05-08T10:44:12.504Z,54.38
2023-05-08T10:45:15.138Z,52.71
2023-05-08T10:46:40.834Z,56.45
2023-05-08T10:47:57.947Z,56.94
2023-05-08T10:49:26.685Z,58.47
2023-05-08T10:50:53.059Z,57.60
2023-05-08T10:52:18.675Z,58.71
2023-05-08T10:53:31.525Z,63.02
2023-05-08T10:54:39.803Z,63.92
2023-05-08T10:55:45.203Z,58.57
2023-05-08T10:56:48.914Z,58.62
2023-05-08T10:58:11.606Z,59.52
2023-05-08T10:59:21.251Z,58.50
2023-05-08T11:00:23.542Z,59.95
2023-05-08T11:01:26.509Z,64.93
2023-05-08T11:02:31.509Z,67.57
2023-05-08T11:03:42.924Z,64.90
2023-05-08T11:04:45.264Z,61.35
2023-05-08T11:05:49.362Z,59.40
2023-05-08T11:06:54.260Z,60.62
2023-05-08T11:07:57.998Z,60.56
2023-05-08T11:09:00.977Z,60.42
2023-05-08T11:10:14.116Z,57.92
2023-05-08T11:11:23.962Z,57.35
2023-05-08T11:12:27.880Z,56.58
2023-05-08T11:13:36.119Z,56.38
2023-05-08T11:14:42.479Z,52.89
2023-05-08T11:15:50.777Z,52.66
2023-05-08T11:17:02.142Z,52.34
2023-05-08T11:18:06.593Z,52.03
2023-05-08T11:19:19.766Z,51.57
2023-05-08T11:20:38.877Z,52.67
2023-05-08T11:22:19.299Z,54.67
2023-05-08T11:23:22.920Z,56.85
2023-05-08T11:24:35.998Z,58.39
2023-05-08T11:25:43.736Z,56.34
2023-05-08T11:26:49.060Z,57.21
2023-05-08T11:27:51.359Z,54.76
2023-05-08T11:28:53.523Z,55.35
2023-05-08T11:30:22.039Z,54.22
2023-05-08T11:31:24.682Z,55.47
2023-05-08T11:33:11.541Z,52.20
2023-05-08T11:34:41.323Z,53.55
2023-05-08T11:35:51.002Z,52.47
2023-05-08T11:37:02.530Z,51.53
2023-05-08T11:38:18.622Z,55.89
2023-05-08T11:39:20.838Z,59.51
2023-05-08T11:40:45.566Z,58.90
2023-05-08T11:41:48.006Z,59.56
2023-05-08T11:42:50.911Z,61.62
2023-05-08T11:44:07.765Z,58.81
2023-05-08T11:45:13.822Z,59.33
2023-05-08T11:46:19.365Z,57.69
2023-05-08T11:47:22.276Z,57.10
2023-05-08T11:48:24.860Z,57.12
2023-05-08T11:49:29.710Z,58.42
2023-05-08T11:50:36.079Z,55.92
2023-05-08T11:51:39.176Z,56.89
2023-05-08T11:52:43.006Z,55.92
2023-05-08T11:53:45.703Z,53.76
2023-05-08T11:54:47.930Z,53.36
2023-05-08T11:55:52.374Z,53.81
2023-05-08T11:56:57.540Z,55.19
2023-05-08T11:57:59.696Z,54.45
2023-05-08T11:59:06.314Z,56.44
2023-05-08T12:00:12.789Z,58.10
2023-05-08T12:01:21.001Z,64.28
2023-05-08T12:02:40.163Z,63.70
2023-05-08T12:03:42.602Z,64.16
2023-05-08T12:04:46.672Z,62.09
2023-05-08T12:05:50.450Z,61.26
2023-05-08T12:06:57.887Z,58.30
2023-05-08T12:08:00.111Z,60.29
2023-05-08T12:09:04.884Z,60.40
2023-05-08T12:10:07.773Z,60.10
2023-05-08T12:11:10.002Z,60.70
2023-05-08T12:12:12.213Z,58.13
2023-05-08T12:13:25.165Z,58.67
2023-05-08T12:14:27.540Z,59.96
2023-05-08T12:15:29.800Z,58.43
2023-05-08T12:16:35.614Z,61.27
2023-05-08T12:17:38.257Z,60.18
2023-05-08T12:18:42.128Z,60.47
2023-05-08T12:19:44.562Z,60.10
2023-05-08T12:21:50.259Z,60.82
2023-05-08T12:22:53.547Z,61.24
2023-05-08T12:23:58.671Z,61.48
2023-05-08T12:25:02.989Z,62.46
2023-05-08T12:26:05.161Z,65.33
2023-05-08T12:27:07.559Z,64.90
2023-05-08T12:28:10.418Z,62.92
2023-05-08T12:29:12.553Z,60.63
2023-05-08T12:30:15.312Z,62.22
2023-05-08T12:31:17.848Z,61.29
2023-05-08T12:32:20.343Z,63.00
2023-05-08T12:33:23.297Z,63.70
2023-05-08T12:34:25.611Z,63.50
2023-05-08T12:35:28.090Z,66.83
2023-05-08T12:36:34.193Z,66.89
2023-05-08T12:37:36.699Z,65.90
2023-05-08T12:42:16.902Z,63.67
2023-05-08T12:43:19.238Z,65.87
2023-05-08T12:44:26.028Z,64.96
2023-05-08T12:45:33.940Z,63.02
2023-05-08T12:46:36.217Z,62.75
2023-05-08T12:48:43.532Z,67.50
2023-05-08T12:50:44.259Z,67.72
2023-05-08T12:51:47.264Z,68.91
2023-05-08T12:52:51.579Z,70.52
2023-05-08T12:53:54.170Z,69.14
2023-05-08T12:54:56.306Z,65.75
2023-05-08T12:56:02.683Z,67.18
2023-05-08T12:57:12.447Z,70.03
2023-05-08T12:58:15.653Z,71.55
2023-05-08T12:59:28.863Z,71.68
2023-05-08T13:00:41.865Z,74.85
2023-05-08T13:01:50.600Z,75.66
2023-05-08T13:02:54.725Z,77.36
2023-05-08T13:04:02.026Z,79.61
2023-05-08T13:05:05.815Z,81.41
2023-05-08T13:06:20.674Z,85.31
2023-05-08T13:07:22.871Z,84.28
2023-05-08T13:08:33.014Z,80.84
2023-05-08T13:09:35.339Z,80.61
2023-05-08T13:10:57.166Z,79.69
2023-05-08T13:13:01.649Z,78.88
2023-05-08T13:14:03.984Z,76.91
2023-05-08T13:15:06.649Z,78.94
2023-05-08T13:16:09.223Z,83.49
2023-05-08T13:17:17.491Z,83.21
2023-05-08T13:18:21.702Z,85.08
2023-05-08T13:19:23.829Z,87.47
2023-05-08T13:20:26.228Z,86.67
2023-05-08T13:21:28.418Z,86.20
2023-05-08T13:23:54.069Z,91.75
2023-05-08T13:24:56.417Z,89.38
2023-05-08T13:25:58.583Z,88.66
2023-05-08T13:27:00.750Z,87.47
2023-05-08T13:28:04.124Z,86.07
2023-05-08T13:29:06.732Z,88.27
2023-05-08T13:30:09.867Z,87.52
2023-05-08T13:31:12.046Z,88.78
2023-05-08T13:32:14.628Z,89.86
2023-05-08T13:33:17.079Z,90.71
2023-05-08T13:35:24.995Z,92.43
2023-05-08T13:36:28.308Z,90.70
2023-05-08T13:37:30.758Z,88.00
2023-05-08T13:38:34.727Z,83.35
2023-05-08T13:39:37.774Z,85.55
2023-05-08T13:40:40.133Z,84.46
2023-05-08T13:41:42.302Z,85.71
2023-05-08T13:42:44.470Z,85.76
2023-05-08T13:43:47.689Z,82.90
2023-05-08T13:44:50.106Z,83.06
2023-05-08T13:45:52.524Z,86.84
2023-05-08T13:46:55.026Z,85.93
2023-05-08T13:49:08.316Z,87.74
2023-05-08T13:50:12.063Z,90.82
2023-05-08T13:51:14.393Z,87.81
2023-05-08T13:52:17.349Z,85.61
2023-05-08T13:53:19.482Z,82.02
2023-05-08T13:54:21.659Z,82.73
2023-05-08T13:55:23.949Z,83.50
2023-05-08T13:56:26.218Z,85.53
2023-05-08T13:57:28.545Z,86.09
2023-05-08T13:58:31.406Z,84.66
2023-05-08T13:59:34.489Z,86.16
2023-05-08T14:00:36.810Z,87.14
2023-05-08T14:01:39.350Z,89.18
2023-05-08T14:02:42.166Z,87.83
2023-05-08T14:03:44.504Z,84.04
2023-05-08T14:04:46.890Z,83.58
2023-05-08T14:05:49.113Z,81.61
2023-05-08T14:06:51.477Z,80.06
2023-05-08T14:07:53.627Z,78.79